sensor_id;sensor_type;location;lat;lon;timestamp;pressure;altitude;pressure_sealevel;temperature;humidity
79577;BME280;69045;48.136;11.386;2023-09-19T00:00:38;95050.25;;;18.52;69.61
79577;BME280;69045;48.136;11.386;2023-09-19T00:03:07;95043.63;;;18.49;69.94
79577;BME280;69045;48.136;11.386;2023-09-19T00:05:37;95042.97;;;18.78;68.58
79577;BME280;69045;48.136;11.386;2023-09-19T00:08:06;95040.81;;;18.80;68.34
79577;BME280;69045;48.136;11.386;2023-09-19T00:10:34;95037.34;;;18.85;67.72
79577;BME280;69045;48.136;11.386;2023-09-19T00:13:04;95041.00;;;18.94;67.65
79577;BME280;69045;48.136;11.386;2023-09-19T00:15:37;95044.34;;;19.09;67.14
79577;BME280;69045;48.136;11.386;2023-09-19T00:18:06;95047.53;;;19.12;67.00
79577;BME280;69045;48.136;11.386;2023-09-19T00:20:36;95044.75;;;19.27;66.59
79577;BME280;69045;48.136;11.386;2023-09-19T00:23:06;95038.81;;;19.40;66.14
79577;BME280;69045;48.136;11.386;2023-09-19T00:25:37;95045.63;;;19.51;66.50
79577;BME280;69045;48.136;11.386;2023-09-19T00:28:08;95037.69;;;19.46;66.41
79577;BME280;69045;48.136;11.386;2023-09-19T00:30:38;95046.78;;;19.40;66.61
79577;BME280;69045;48.136;11.386;2023-09-19T00:33:06;95050.81;;;19.32;66.77
79577;BME280;69045;48.136;11.386;2023-09-19T00:35:34;95051.59;;;19.38;66.55
79577;BME280;69045;48.136;11.386;2023-09-19T00:38:04;95049.78;;;18.89;68.35
79577;BME280;69045;48.136;11.386;2023-09-19T00:40:33;95056.63;;;19.00;67.81
79577;BME280;69045;48.136;11.386;2023-09-19T00:43:05;95056.25;;;19.17;67.09
79577;BME280;69045;48.136;11.386;2023-09-19T00:45:41;95060.44;;;19.23;66.89
79577;BME280;69045;48.136;11.386;2023-09-19T00:48:10;95057.44;;;19.35;66.83
79577;BME280;69045;48.136;11.386;2023-09-19T00:50:41;95056.94;;;19.33;66.92
79577;BME280;69045;48.136;11.386;2023-09-19T00:53:14;95072.28;;;19.41;66.90
79577;BME280;69045;48.136;11.386;2023-09-19T00:55:46;95076.94;;;19.54;66.54
79577;BME280;69045;48.136;11.386;2023-09-19T00:58:16;95072.09;;;19.67;65.88
79577;BME280;69045;48.136;11.386;2023-09-19T01:00:48;95073.06;;;19.76;65.48
79577;BME280;69045;48.136;11.386;2023-09-19T01:03:17;95077.78;;;19.84;65.53
79577;BME280;69045;48.136;11.386;2023-09-19T01:05:45;95075.09;;;19.84;65.56
79577;BME280;69045;48.136;11.386;2023-09-19T01:08:13;95079.88;;;19.87;65.83
79577;BME280;69045;48.136;11.386;2023-09-19T01:10:49;95083.34;;;19.87;65.68
79577;BME280;69045;48.136;11.386;2023-09-19T01:13:29;95086.75;;;19.93;65.22
79577;BME280;69045;48.136;11.386;2023-09-19T01:16:08;95089.06;;;20.00;65.16
79577;BME280;69045;48.136;11.386;2023-09-19T01:18:48;95090.06;;;20.04;64.93
79577;BME280;69045;48.136;11.386;2023-09-19T01:21:26;95092.19;;;20.07;65.11
79577;BME280;69045;48.136;11.386;2023-09-19T01:24:16;95104.69;;;20.06;65.07
79577;BME280;69045;48.136;11.386;2023-09-19T01:27:13;95092.22;;;20.02;65.13
79577;BME280;69045;48.136;11.386;2023-09-19T01:29:47;95094.59;;;20.03;65.19
79577;BME280;69045;48.136;11.386;2023-09-19T01:32:19;95101.75;;;20.08;65.13
79577;BME280;69045;48.136;11.386;2023-09-19T01:34:53;95104.06;;;20.14;64.27
79577;BME280;69045;48.136;11.386;2023-09-19T01:37:23;95105.91;;;20.19;64.07
79577;BME280;69045;48.136;11.386;2023-09-19T01:39:57;95109.03;;;20.26;63.68
79577;BME280;69045;48.136;11.386;2023-09-19T01:42:41;95104.94;;;20.34;63.22
79577;BME280;69045;48.136;11.386;2023-09-19T01:45:15;95105.38;;;20.41;62.61
79577;BME280;69045;48.136;11.386;2023-09-19T01:47:50;95112.53;;;20.45;61.98
79577;BME280;69045;48.136;11.386;2023-09-19T01:50:29;95113.81;;;20.53;61.64
79577;BME280;69045;48.136;11.386;2023-09-19T01:53:04;95111.59;;;20.60;61.21
79577;BME280;69045;48.136;11.386;2023-09-19T01:55:47;95102.47;;;20.66;60.69
79577;BME280;69045;48.136;11.386;2023-09-19T01:58:21;95105.03;;;20.71;60.08
79577;BME280;69045;48.136;11.386;2023-09-19T02:00:52;95102.31;;;20.77;60.38
79577;BME280;69045;48.136;11.386;2023-09-19T02:03:24;95111.59;;;20.79;59.86
79577;BME280;69045;48.136;11.386;2023-09-19T02:05:53;95110.47;;;20.85;59.76
79577;BME280;69045;48.136;11.386;2023-09-19T02:08:22;95108.81;;;20.89;59.86
79577;BME280;69045;48.136;11.386;2023-09-19T02:10:52;95117.00;;;20.93;59.76
79577;BME280;69045;48.136;11.386;2023-09-19T02:13:22;95111.13;;;20.96;59.23
79577;BME280;69045;48.136;11.386;2023-09-19T02:15:51;95112.78;;;20.92;59.91
79577;BME280;69045;48.136;11.386;2023-09-19T02:18:19;95111.94;;;20.96;59.04
79577;BME280;69045;48.136;11.386;2023-09-19T02:20:49;95116.09;;;21.03;59.03
79577;BME280;69045;48.136;11.386;2023-09-19T02:23:19;95114.72;;;21.05;59.04
79577;BME280;69045;48.136;11.386;2023-09-19T02:25:52;95113.66;;;21.06;58.43
79577;BME280;69045;48.136;11.386;2023-09-19T02:28:20;95116.31;;;21.06;58.39
79577;BME280;69045;48.136;11.386;2023-09-19T02:30:50;95118.19;;;21.06;58.87
79577;BME280;69045;48.136;11.386;2023-09-19T02:33:18;95120.84;;;21.06;58.69
79577;BME280;69045;48.136;11.386;2023-09-19T02:35:46;95116.91;;;21.03;58.28
79577;BME280;69045;48.136;11.386;2023-09-19T02:38:16;95118.28;;;21.01;58.55
79577;BME280;69045;48.136;11.386;2023-09-19T02:40:48;95123.66;;;20.95;58.55
79577;BME280;69045;48.136;11.386;2023-09-19T02:43:16;95121.56;;;20.92;58.45
79577;BME280;69045;48.136;11.386;2023-09-19T02:45:46;95126.09;;;20.92;58.98
79577;BME280;69045;48.136;11.386;2023-09-19T02:48:16;95129.03;;;20.90;59.04
79577;BME280;69045;48.136;11.386;2023-09-19T02:50:46;95124.00;;;20.89;59.11
79577;BME280;69045;48.136;11.386;2023-09-19T02:53:18;95120.84;;;20.87;59.21
79577;BME280;69045;48.136;11.386;2023-09-19T02:55:46;95129.34;;;20.89;59.22
79577;BME280;69045;48.136;11.386;2023-09-19T02:58:15;95127.75;;;20.88;59.23
79577;BME280;69045;48.136;11.386;2023-09-19T03:00:46;95124.31;;;20.87;59.17
79577;BME280;69045;48.136;11.386;2023-09-19T03:03:15;95121.06;;;20.90;58.87
79577;BME280;69045;48.136;11.386;2023-09-19T03:05:44;95122.34;;;20.93;59.09
79577;BME280;69045;48.136;11.386;2023-09-19T03:08:15;95117.53;;;20.95;59.11
79577;BME280;69045;48.136;11.386;2023-09-19T03:10:47;95121.78;;;20.96;59.39
79577;BME280;69045;48.136;11.386;2023-09-19T03:13:15;95119.06;;;21.01;58.55
79577;BME280;69045;48.136;11.386;2023-09-19T03:15:44;95122.22;;;21.03;58.68
79577;BME280;69045;48.136;11.386;2023-09-19T03:18:15;95123.00;;;21.04;58.14
79577;BME280;69045;48.136;11.386;2023-09-19T03:20:43;95126.97;;;21.06;58.34
79577;BME280;69045;48.136;11.386;2023-09-19T03:23:12;95123.50;;;21.06;58.80
79577;BME280;69045;48.136;11.386;2023-09-19T03:25:40;95136.47;;;21.12;58.57
79577;BME280;69045;48.136;11.386;2023-09-19T03:28:10;95128.41;;;21.17;58.18
79577;BME280;69045;48.136;11.386;2023-09-19T03:30:38;95137.25;;;21.13;58.17
79577;BME280;69045;48.136;11.386;2023-09-19T03:33:06;95135.31;;;21.18;58.27
79577;BME280;69045;48.136;11.386;2023-09-19T03:35:35;95134.78;;;21.21;57.84
79577;BME280;69045;48.136;11.386;2023-09-19T03:38:04;95142.25;;;21.19;58.05
79577;BME280;69045;48.136;11.386;2023-09-19T03:40:32;95136.13;;;21.19;58.10
79577;BME280;69045;48.136;11.386;2023-09-19T03:43:00;95130.78;;;21.19;58.21
79577;BME280;69045;48.136;11.386;2023-09-19T03:45:30;95141.19;;;21.20;58.12
79577;BME280;69045;48.136;11.386;2023-09-19T03:47:58;95135.84;;;21.20;58.10
79577;BME280;69045;48.136;11.386;2023-09-19T03:50:26;95135.84;;;21.20;57.77
79577;BME280;69045;48.136;11.386;2023-09-19T03:52:56;95141.38;;;21.24;57.98
79577;BME280;69045;48.136;11.386;2023-09-19T03:55:24;95143.50;;;21.27;58.13
79577;BME280;69045;48.136;11.386;2023-09-19T03:57:53;95141.34;;;21.29;58.01
79577;BME280;69045;48.136;11.386;2023-09-19T04:00:22;95148.75;;;21.32;57.95
79577;BME280;69045;48.136;11.386;2023-09-19T04:02:54;95154.09;;;21.32;57.93
79577;BME280;69045;48.136;11.386;2023-09-19T04:05:24;95150.94;;;21.30;57.90
79577;BME280;69045;48.136;11.386;2023-09-19T04:07:52;95151.41;;;21.32;58.36
79577;BME280;69045;48.136;11.386;2023-09-19T04:10:23;95160.16;;;21.38;57.47
79577;BME280;69045;48.136;11.386;2023-09-19T04:12:54;95161.72;;;21.39;57.76
79577;BME280;69045;48.136;11.386;2023-09-19T04:15:27;95155.91;;;21.37;57.28
79577;BME280;69045;48.136;11.386;2023-09-19T04:17:57;95161.72;;;21.39;57.43
79577;BME280;69045;48.136;11.386;2023-09-19T04:20:24;95161.16;;;21.42;57.58
79577;BME280;69045;48.136;11.386;2023-09-19T04:22:52;95157.19;;;21.39;57.60
79577;BME280;69045;48.136;11.386;2023-09-19T04:25:21;95175.34;;;21.37;57.39
79577;BME280;69045;48.136;11.386;2023-09-19T04:27:49;95169.53;;;21.35;57.60
79577;BME280;69045;48.136;11.386;2023-09-19T04:30:17;95172.25;;;21.30;57.35
79577;BME280;69045;48.136;11.386;2023-09-19T04:32:48;95173.59;;;21.27;57.54
79577;BME280;69045;48.136;11.386;2023-09-19T04:35:19;95175.69;;;21.31;57.88
79577;BME280;69045;48.136;11.386;2023-09-19T04:37:47;95165.53;;;21.33;57.43
79577;BME280;69045;48.136;11.386;2023-09-19T04:40:15;95169.72;;;21.39;56.98
79577;BME280;69045;48.136;11.386;2023-09-19T04:42:45;95171.53;;;21.43;57.28
79577;BME280;69045;48.136;11.386;2023-09-19T04:45:13;95180.63;;;21.42;57.10
79577;BME280;69045;48.136;11.386;2023-09-19T04:47:41;95180.91;;;21.41;57.61
79577;BME280;69045;48.136;11.386;2023-09-19T04:50:11;95185.88;;;21.47;56.92
79577;BME280;69045;48.136;11.386;2023-09-19T04:52:43;95183.22;;;21.47;56.75
79577;BME280;69045;48.136;11.386;2023-09-19T04:55:12;95190.69;;;21.45;56.89
79577;BME280;69045;48.136;11.386;2023-09-19T04:57:44;95195.53;;;21.43;56.41
79577;BME280;69045;48.136;11.386;2023-09-19T05:00:14;95196.44;;;21.34;57.25
79577;BME280;69045;48.136;11.386;2023-09-19T05:02:43;95197.03;;;21.31;56.80
79577;BME280;69045;48.136;11.386;2023-09-19T05:05:12;95196.25;;;21.25;57.45
79577;BME280;69045;48.136;11.386;2023-09-19T05:07:43;95208.78;;;21.24;57.46
79577;BME280;69045;48.136;11.386;2023-09-19T05:10:12;95213.13;;;21.20;57.18
79577;BME280;69045;48.136;11.386;2023-09-19T05:12:40;95213.97;;;21.16;57.50
79577;BME280;69045;48.136;11.386;2023-09-19T05:15:10;95223.03;;;21.15;57.50
79577;BME280;69045;48.136;11.386;2023-09-19T05:17:39;95227.34;;;21.11;58.02
79577;BME280;69045;48.136;11.386;2023-09-19T05:20:08;95237.66;;;21.17;57.50
79577;BME280;69045;48.136;11.386;2023-09-19T05:22:40;95230.91;;;21.25;57.67
79577;BME280;69045;48.136;11.386;2023-09-19T05:25:09;95235.34;;;21.35;57.16
79577;BME280;69045;48.136;11.386;2023-09-19T05:27:42;95233.38;;;21.40;56.70
79577;BME280;69045;48.136;11.386;2023-09-19T05:30:11;95232.09;;;21.38;56.51
79577;BME280;69045;48.136;11.386;2023-09-19T05:32:41;95244.41;;;21.34;56.58
79577;BME280;69045;48.136;11.386;2023-09-19T05:35:10;95247.16;;;21.29;56.51
79577;BME280;69045;48.136;11.386;2023-09-19T05:37:40;95245.31;;;21.24;56.96
79577;BME280;69045;48.136;11.386;2023-09-19T05:40:10;95245.38;;;21.19;57.40
79577;BME280;69045;48.136;11.386;2023-09-19T05:42:39;95250.19;;;21.17;57.62
79577;BME280;69045;48.136;11.386;2023-09-19T05:45:08;95244.06;;;21.16;56.94
79577;BME280;69045;48.136;11.386;2023-09-19T05:47:39;95246.00;;;21.11;57.26
79577;BME280;69045;48.136;11.386;2023-09-19T05:50:09;95244.63;;;21.13;57.16
79577;BME280;69045;48.136;11.386;2023-09-19T05:52:38;95248.03;;;21.19;57.67
79577;BME280;69045;48.136;11.386;2023-09-19T05:55:09;95253.59;;;21.22;57.36
79577;BME280;69045;48.136;11.386;2023-09-19T05:57:37;95258.81;;;21.33;57.33
79577;BME280;69045;48.136;11.386;2023-09-19T06:00:07;95248.25;;;21.46;57.16
79577;BME280;69045;48.136;11.386;2023-09-19T06:02:38;95258.06;;;21.51;56.79
79577;BME280;69045;48.136;11.386;2023-09-19T06:05:07;95253.16;;;21.58;56.36
79577;BME280;69045;48.136;11.386;2023-09-19T06:07:36;95255.97;;;21.67;56.42
79577;BME280;69045;48.136;11.386;2023-09-19T06:10:05;95259.16;;;21.69;56.57
79577;BME280;69045;48.136;11.386;2023-09-19T06:12:39;95262.56;;;21.74;56.14
79577;BME280;69045;48.136;11.386;2023-09-19T06:15:08;95260.88;;;21.78;55.80
79577;BME280;69045;48.136;11.386;2023-09-19T06:17:39;95271.78;;;21.82;55.65
79577;BME280;69045;48.136;11.386;2023-09-19T06:20:08;95265.72;;;21.76;55.93
79577;BME280;69045;48.136;11.386;2023-09-19T06:22:40;95266.00;;;21.75;56.13
79577;BME280;69045;48.136;11.386;2023-09-19T06:25:10;95270.16;;;21.81;56.13
79577;BME280;69045;48.136;11.386;2023-09-19T06:27:41;95271.41;;;21.89;55.66
79577;BME280;69045;48.136;11.386;2023-09-19T06:30:10;95274.22;;;21.97;55.53
79577;BME280;69045;48.136;11.386;2023-09-19T06:32:40;95279.97;;;22.04;55.31
79577;BME280;69045;48.136;11.386;2023-09-19T06:35:11;95276.81;;;22.02;55.39
79577;BME280;69045;48.136;11.386;2023-09-19T06:37:41;95286.09;;;22.05;55.44
79577;BME280;69045;48.136;11.386;2023-09-19T06:40:10;95287.66;;;22.11;55.47
79577;BME280;69045;48.136;11.386;2023-09-19T06:42:43;95288.00;;;22.23;55.33
79577;BME280;69045;48.136;11.386;2023-09-19T06:45:12;95292.09;;;22.34;55.10
79577;BME280;69045;48.136;11.386;2023-09-19T06:47:44;95293.47;;;22.65;55.07
79577;BME280;69045;48.136;11.386;2023-09-19T06:50:16;95296.84;;;23.16;53.48
79577;BME280;69045;48.136;11.386;2023-09-19T06:52:45;95296.34;;;23.42;52.94
79577;BME280;69045;48.136;11.386;2023-09-19T06:55:16;95303.47;;;23.47;52.74
79577;BME280;69045;48.136;11.386;2023-09-19T06:57:46;95297.13;;;23.42;52.24
79577;BME280;69045;48.136;11.386;2023-09-19T07:00:15;95286.75;;;23.27;52.53
79577;BME280;69045;48.136;11.386;2023-09-19T07:02:55;95289.03;;;23.20;53.23
79577;BME280;69045;48.136;11.386;2023-09-19T07:05:23;95303.41;;;23.24;52.86
79577;BME280;69045;48.136;11.386;2023-09-19T07:07:51;95306.06;;;23.24;52.77
79577;BME280;69045;48.136;11.386;2023-09-19T07:10:20;95311.59;;;23.28;53.19
79577;BME280;69045;48.136;11.386;2023-09-19T07:12:56;95311.81;;;23.31;52.67
79577;BME280;69045;48.136;11.386;2023-09-19T07:15:25;95308.84;;;23.33;52.94
79577;BME280;69045;48.136;11.386;2023-09-19T07:17:54;95315.84;;;23.42;52.93
79577;BME280;69045;48.136;11.386;2023-09-19T07:20:24;95313.78;;;23.81;51.93
79577;BME280;69045;48.136;11.386;2023-09-19T07:22:53;95317.03;;;24.28;51.11
79577;BME280;69045;48.136;11.386;2023-09-19T07:25:22;95314.38;;;24.50;50.03
79577;BME280;69045;48.136;11.386;2023-09-19T07:27:50;95312.25;;;24.61;49.74
79577;BME280;69045;48.136;11.386;2023-09-19T07:30:20;95311.97;;;24.71;50.20
79577;BME280;69045;48.136;11.386;2023-09-19T07:32:51;95312.72;;;24.63;50.04
79577;BME280;69045;48.136;11.386;2023-09-19T07:35:19;95315.09;;;24.42;50.26
79577;BME280;69045;48.136;11.386;2023-09-19T07:37:48;95313.59;;;24.49;50.15
79577;BME280;69045;48.136;11.386;2023-09-19T07:40:19;95315.19;;;25.75;47.65
79577;BME280;69045;48.136;11.386;2023-09-19T07:42:48;95313.34;;;26.36;46.19
79577;BME280;69045;48.136;11.386;2023-09-19T07:45:17;95317.75;;;26.40;45.97
79577;BME280;69045;48.136;11.386;2023-09-19T07:47:47;95322.81;;;26.59;45.94
79577;BME280;69045;48.136;11.386;2023-09-19T07:50:17;95331.63;;;26.86;44.45
79577;BME280;69045;48.136;11.386;2023-09-19T07:52:46;95332.59;;;26.73;45.41
79577;BME280;69045;48.136;11.386;2023-09-19T07:55:14;95337.81;;;26.78;46.00
79577;BME280;69045;48.136;11.386;2023-09-19T07:57:44;95336.53;;;26.75;45.29
79577;BME280;69045;48.136;11.386;2023-09-19T08:00:14;95330.53;;;26.35;46.53
79577;BME280;69045;48.136;11.386;2023-09-19T08:02:43;95333.53;;;25.99;47.25
79577;BME280;69045;48.136;11.386;2023-09-19T08:05:29;95329.06;;;25.77;47.71
79577;BME280;69045;48.136;11.386;2023-09-19T08:07:57;95333.47;;;25.73;47.64
79577;BME280;69045;48.136;11.386;2023-09-19T08:10:26;95326.13;;;25.56;47.86
79577;BME280;69045;48.136;11.386;2023-09-19T08:12:54;95329.94;;;25.55;48.17
79577;BME280;69045;48.136;11.386;2023-09-19T08:15:25;95332.16;;;26.45;46.15
79577;BME280;69045;48.136;11.386;2023-09-19T08:17:54;95341.69;;;28.21;43.13
79577;BME280;69045;48.136;11.386;2023-09-19T08:20:22;95329.47;;;29.80;39.40
79577;BME280;69045;48.136;11.386;2023-09-19T08:22:52;95325.03;;;31.09;37.12
79577;BME280;69045;48.136;11.386;2023-09-19T08:25:30;95333.94;;;32.04;34.84
79577;BME280;69045;48.136;11.386;2023-09-19T08:27:58;95335.06;;;32.19;34.34
79577;BME280;69045;48.136;11.386;2023-09-19T08:30:28;95344.09;;;32.07;34.47
79577;BME280;69045;48.136;11.386;2023-09-19T08:32:57;95348.31;;;32.78;33.68
79577;BME280;69045;48.136;11.386;2023-09-19T08:35:26;95337.41;;;33.36;32.74
79577;BME280;69045;48.136;11.386;2023-09-19T08:37:55;95336.00;;;33.92;31.64
79577;BME280;69045;48.136;11.386;2023-09-19T08:40:24;95332.09;;;33.44;32.24
79577;BME280;69045;48.136;11.386;2023-09-19T08:42:57;95332.47;;;33.42;32.19
79577;BME280;69045;48.136;11.386;2023-09-19T08:45:26;95330.53;;;32.81;33.42
79577;BME280;69045;48.136;11.386;2023-09-19T08:48:07;95343.75;;;31.77;34.63
79577;BME280;69045;48.136;11.386;2023-09-19T08:50:46;95342.00;;;30.37;35.87
79577;BME280;69045;48.136;11.386;2023-09-19T08:53:41;95341.75;;;29.08;38.52
79577;BME280;69045;48.136;11.386;2023-09-19T08:56:11;95346.97;;;28.38;39.90
79577;BME280;69045;48.136;11.386;2023-09-19T08:58:45;95351.53;;;28.17;40.14
79577;BME280;69045;48.136;11.386;2023-09-19T09:01:15;95352.38;;;28.59;39.36
79577;BME280;69045;48.136;11.386;2023-09-19T09:03:46;95348.13;;;28.28;38.87
79577;BME280;69045;48.136;11.386;2023-09-19T09:06:18;95355.63;;;27.64;40.70
79577;BME280;69045;48.136;11.386;2023-09-19T09:08:50;95353.84;;;28.06;39.84
79577;BME280;69045;48.136;11.386;2023-09-19T09:11:21;95353.16;;;28.60;39.16
79577;BME280;69045;48.136;11.386;2023-09-19T09:13:52;95351.25;;;28.39;38.88
79577;BME280;69045;48.136;11.386;2023-09-19T09:16:20;95350.66;;;28.54;38.31
79577;BME280;69045;48.136;11.386;2023-09-19T09:18:51;95354.81;;;28.52;38.52
79577;BME280;69045;48.136;11.386;2023-09-19T09:21:21;95353.34;;;29.08;38.19
79577;BME280;69045;48.136;11.386;2023-09-19T09:23:52;95347.97;;;29.33;37.57
79577;BME280;69045;48.136;11.386;2023-09-19T09:26:41;95350.63;;;29.66;37.04
79577;BME280;69045;48.136;11.386;2023-09-19T09:29:15;95347.00;;;29.86;36.27
79577;BME280;69045;48.136;11.386;2023-09-19T09:31:47;95337.91;;;30.15;35.74
79577;BME280;69045;48.136;11.386;2023-09-19T09:34:18;95340.50;;;30.52;34.87
79577;BME280;69045;48.136;11.386;2023-09-19T09:36:48;95348.88;;;31.03;33.91
79577;BME280;69045;48.136;11.386;2023-09-19T09:39:31;95348.72;;;31.12;33.53
79577;BME280;69045;48.136;11.386;2023-09-19T09:42:01;95350.16;;;30.25;34.37
79577;BME280;69045;48.136;11.386;2023-09-19T09:44:35;95357.47;;;29.51;36.04
79577;BME280;69045;48.136;11.386;2023-09-19T09:47:04;95357.28;;;28.90;37.04
79577;BME280;69045;48.136;11.386;2023-09-19T09:49:49;95354.03;;;28.22;38.47
79577;BME280;69045;48.136;11.386;2023-09-19T09:52:44;95361.31;;;27.62;39.39
79577;BME280;69045;48.136;11.386;2023-09-19T09:55:14;95362.94;;;27.55;39.89
79577;BME280;69045;48.136;11.386;2023-09-19T09:57:42;95362.38;;;27.40;39.65
79577;BME280;69045;48.136;11.386;2023-09-19T10:00:11;95368.53;;;27.41;39.93
79577;BME280;69045;48.136;11.386;2023-09-19T10:02:47;95360.34;;;27.67;39.66
79577;BME280;69045;48.136;11.386;2023-09-19T10:05:17;95366.72;;;27.71;39.95
79577;BME280;69045;48.136;11.386;2023-09-19T10:08:10;95360.59;;;27.91;39.49
79577;BME280;69045;48.136;11.386;2023-09-19T10:10:41;95355.09;;;28.50;39.12
79577;BME280;69045;48.136;11.386;2023-09-19T10:13:25;95355.63;;;28.65;37.80
79577;BME280;69045;48.136;11.386;2023-09-19T10:15:58;95358.66;;;28.42;38.61
79577;BME280;69045;48.136;11.386;2023-09-19T10:18:27;95355.25;;;28.54;37.69
79577;BME280;69045;48.136;11.386;2023-09-19T10:21:01;95369.56;;;28.25;38.49
79577;BME280;69045;48.136;11.386;2023-09-19T10:23:31;95377.28;;;27.67;39.54
79577;BME280;69045;48.136;11.386;2023-09-19T10:26:08;95374.69;;;27.41;40.38
79577;BME280;69045;48.136;11.386;2023-09-19T10:28:37;95369.19;;;27.29;40.67
79577;BME280;69045;48.136;11.386;2023-09-19T10:31:07;95364.34;;;27.14;41.35
79577;BME280;69045;48.136;11.386;2023-09-19T10:33:43;95363.31;;;27.36;41.16
79577;BME280;69045;48.136;11.386;2023-09-19T10:36:12;95372.00;;;27.41;40.93
79577;BME280;69045;48.136;11.386;2023-09-19T10:38:43;95365.00;;;27.49;40.69
79577;BME280;69045;48.136;11.386;2023-09-19T10:41:22;95365.50;;;27.42;41.07
79577;BME280;69045;48.136;11.386;2023-09-19T10:43:51;95364.09;;;27.83;39.82
79577;BME280;69045;48.136;11.386;2023-09-19T10:46:21;95361.50;;;28.16;39.55
79577;BME280;69045;48.136;11.386;2023-09-19T10:48:50;95364.59;;;28.06;39.54
79577;BME280;69045;48.136;11.386;2023-09-19T10:51:25;95372.25;;;27.95;40.27
79577;BME280;69045;48.136;11.386;2023-09-19T10:54:05;95361.03;;;28.44;39.87
79577;BME280;69045;48.136;11.386;2023-09-19T10:56:46;95363.09;;;29.01;37.72
79577;BME280;69045;48.136;11.386;2023-09-19T10:59:17;95368.53;;;29.13;35.83
79577;BME280;69045;48.136;11.386;2023-09-19T11:01:50;95363.94;;;29.26;36.32
79577;BME280;69045;48.136;11.386;2023-09-19T11:04:39;95366.28;;;29.60;35.36
79577;BME280;69045;48.136;11.386;2023-09-19T11:07:16;95355.25;;;29.90;35.43
79577;BME280;69045;48.136;11.386;2023-09-19T11:09:49;95357.81;;;29.99;34.32
79577;BME280;69045;48.136;11.386;2023-09-19T11:12:49;95359.75;;;30.23;34.89
79577;BME280;69045;48.136;11.386;2023-09-19T11:18:52;95362.13;;;30.12;35.17
79577;BME280;69045;48.136;11.386;2023-09-19T11:24:30;95353.63;;;28.95;35.74
79577;BME280;69045;48.136;11.386;2023-09-19T11:27:15;95351.53;;;28.79;36.05
79577;BME280;69045;48.136;11.386;2023-09-19T11:29:46;95349.94;;;28.45;36.38
79577;BME280;69045;48.136;11.386;2023-09-19T11:32:15;95354.44;;;28.12;37.75
79577;BME280;69045;48.136;11.386;2023-09-19T11:34:47;95349.28;;;27.68;40.88
79577;BME280;69045;48.136;11.386;2023-09-19T11:40:46;95349.75;;;27.70;41.11
79577;BME280;69045;48.136;11.386;2023-09-19T11:43:31;95352.44;;;27.70;40.71
79577;BME280;69045;48.136;11.386;2023-09-19T11:46:06;95347.81;;;27.80;38.54
79577;BME280;69045;48.136;11.386;2023-09-19T11:48:35;95359.41;;;27.71;38.95
79577;BME280;69045;48.136;11.386;2023-09-19T11:51:17;95351.91;;;27.77;39.80
79577;BME280;69045;48.136;11.386;2023-09-19T11:53:55;95352.53;;;27.83;39.36
79577;BME280;69045;48.136;11.386;2023-09-19T11:56:26;95355.03;;;27.88;38.82
79577;BME280;69045;48.136;11.386;2023-09-19T11:58:56;95350.13;;;27.90;38.58
79577;BME280;69045;48.136;11.386;2023-09-19T12:01:31;95340.00;;;27.87;37.06
79577;BME280;69045;48.136;11.386;2023-09-19T12:04:02;95339.00;;;27.62;38.49
79577;BME280;69045;48.136;11.386;2023-09-19T12:06:32;95351.88;;;27.47;39.40
79577;BME280;69045;48.136;11.386;2023-09-19T12:09:03;95345.06;;;27.50;38.79
79577;BME280;69045;48.136;11.386;2023-09-19T12:11:42;95338.59;;;27.42;38.84
79577;BME280;69045;48.136;11.386;2023-09-19T12:14:11;95336.34;;;27.53;39.05
79577;BME280;69045;48.136;11.386;2023-09-19T12:16:53;95337.56;;;27.64;38.46
79577;BME280;69045;48.136;11.386;2023-09-19T12:19:23;95336.53;;;27.48;38.42
79577;BME280;69045;48.136;11.386;2023-09-19T12:21:56;95335.91;;;27.42;38.65
79577;BME280;69045;48.136;11.386;2023-09-19T12:24:27;95336.25;;;27.41;38.47
79577;BME280;69045;48.136;11.386;2023-09-19T12:27:03;95333.03;;;27.47;38.70
79577;BME280;69045;48.136;11.386;2023-09-19T12:29:42;95321.03;;;27.45;37.77
79577;BME280;69045;48.136;11.386;2023-09-19T12:32:17;95325.19;;;27.34;38.62
79577;BME280;69045;48.136;11.386;2023-09-19T12:34:54;95326.75;;;27.43;38.64
79577;BME280;69045;48.136;11.386;2023-09-19T12:37:22;95330.44;;;27.30;38.60
79577;BME280;69045;48.136;11.386;2023-09-19T12:40:05;95318.13;;;27.59;38.23
79577;BME280;69045;48.136;11.386;2023-09-19T12:42:43;95326.66;;;27.90;38.20
79577;BME280;69045;48.136;11.386;2023-09-19T12:45:15;95331.00;;;28.03;37.42
79577;BME280;69045;48.136;11.386;2023-09-19T12:48:21;95323.44;;;27.97;37.50
79577;BME280;69045;48.136;11.386;2023-09-19T12:51:03;95335.16;;;28.01;37.49
79577;BME280;69045;48.136;11.386;2023-09-19T12:53:37;95338.06;;;28.17;36.95
79577;BME280;69045;48.136;11.386;2023-09-19T12:56:09;95326.75;;;28.23;36.97
79577;BME280;69045;48.136;11.386;2023-09-19T12:58:48;95335.72;;;28.36;37.60
79577;BME280;69045;48.136;11.386;2023-09-19T13:01:17;95330.53;;;28.52;37.54
79577;BME280;69045;48.136;11.386;2023-09-19T13:04:12;95326.22;;;28.72;37.63
79577;BME280;69045;48.136;11.386;2023-09-19T13:06:46;95331.03;;;28.66;37.35
79577;BME280;69045;48.136;11.386;2023-09-19T13:09:17;95320.91;;;28.63;38.42
79577;BME280;69045;48.136;11.386;2023-09-19T13:11:47;95322.53;;;28.76;38.03
79577;BME280;69045;48.136;11.386;2023-09-19T13:14:22;95317.81;;;28.86;38.15
79577;BME280;69045;48.136;11.386;2023-09-19T13:16:55;95302.75;;;28.84;38.10
79577;BME280;69045;48.136;11.386;2023-09-19T13:19:39;95312.13;;;28.87;37.82
79577;BME280;69045;48.136;11.386;2023-09-19T13:22:36;95314.91;;;28.91;38.03
79577;BME280;69045;48.136;11.386;2023-09-19T13:25:11;95302.28;;;28.70;36.64